Time;durP1;ratioP1;P1;durP2;ratioP2;P2;SDS_P1;SDS_P2;PMS_P1;PMS_P2;Temp;Humidity;BMP_temperature;BMP_pressure;BME280_temperature;BME280_humidity;BME280_pressure;Samples;Min_cycle;Max_cycle;Signal;HPM_P1;HPM_P2
2024/04/10 00:07:34;;;;;;;;;;;9.50;99.90;;;;;;6752662;88;20054;-77
2024/04/10 00:17:34;;;;;;;;;;;9.50;99.90;;;;;;6756050;88;20043;-78
2024/04/10 00:27:35;;;;;;;;;;;9.40;99.90;;;;;;6754889;87;20729;-77
2024/04/10 00:37:35;;;;;;;;;;;9.40;99.90;;;;;;6746761;88;20663;-78
2024/04/10 00:47:35;;;;;;;;;;;9.40;99.90;;;;;;6749985;88;20075;-77
2024/04/10 00:57:37;;;;;;;;;;;9.50;99.90;;;;;;6763572;88;20091;-77
2024/04/10 01:07:37;;;;;;;;;;;9.50;99.90;;;;;;6752859;88;20101;-78
2024/04/10 01:17:38;;;;;;;;;;;9.40;99.90;;;;;;6746958;88;20102;-78
2024/04/10 01:27:38;;;;;;;;;;;9.50;99.90;;;;;;6746887;88;20739;-78
2024/04/10 01:37:39;;;;;;;;;;;9.40;99.90;;;;;;6750082;88;20092;-78
2024/04/10 01:47:39;;;;;;;;;;;9.40;99.90;;;;;;6746942;88;20111;-78
2024/04/10 01:57:40;;;;;;;;;;;9.40;99.90;;;;;;6750256;88;20079;-78
2024/04/10 02:07:41;;;;;;;;;;;9.30;99.90;;;;;;6753525;88;20538;-80
2024/04/10 02:17:41;;;;;;;;;;;9.20;99.90;;;;;;6755949;88;20069;-80
2024/04/10 02:37:46;;;;;;;;;;;9.00;99.90;;;;;;6732744;88;21565;-78
2024/04/10 02:47:46;;;;;;;;;;;8.80;99.90;;;;;;6731927;88;20074;-79
2024/04/10 02:57:47;;;;;;;;;;;8.80;99.90;;;;;;6733999;88;20080;-80
2024/04/10 03:07:48;;;;;;;;;;;8.60;99.90;;;;;;6735212;88;20076;-80
2024/04/10 03:17:48;;;;;;;;;;;8.50;99.90;;;;;;6736564;88;20077;-80
2024/04/10 03:27:49;;;;;;;;;;;8.30;99.90;;;;;;6745505;88;20042;-78
2024/04/10 03:37:50;;;;;;;;;;;8.30;99.90;;;;;;6733091;88;20073;-79
2024/04/10 03:47:50;;;;;;;;;;;8.30;99.90;;;;;;6737147;88;20153;-81
2024/04/10 03:57:50;;;;;;;;;;;8.10;99.90;;;;;;6737925;88;20089;-81
2024/04/10 04:07:51;;;;;;;;;;;8.00;99.90;;;;;;6738640;88;20064;-79
2024/04/10 04:17:51;;;;;;;;;;;7.90;99.90;;;;;;6738094;88;20568;-78
2024/04/10 04:27:52;;;;;;;;;;;7.80;99.90;;;;;;6736339;88;20059;-80
2024/04/10 04:37:56;;;;;;;;;;;7.70;99.90;;;;;;6737138;88;20067;-80
2024/04/10 04:47:57;;;;;;;;;;;7.70;99.90;;;;;;6735348;88;20082;-79
2024/04/10 04:57:57;;;;;;;;;;;7.60;99.90;;;;;;6737904;88;20142;-80
2024/04/10 05:07:58;;;;;;;;;;;7.50;99.90;;;;;;6747110;88;20116;-83
2024/04/10 05:17:58;;;;;;;;;;;7.50;99.90;;;;;;6739226;88;20495;-81
2024/04/10 05:28:00;;;;;;;;;;;7.50;99.90;;;;;;6733627;88;20054;-79
2024/04/10 05:38:06;;;;;;;;;;;7.40;99.90;;;;;;6737305;88;20066;-80
2024/04/10 05:48:07;;;;;;;;;;;7.50;99.90;;;;;;6736149;88;20046;-79
2024/04/10 05:58:07;;;;;;;;;;;7.70;99.90;;;;;;6731436;88;20076;-80
2024/04/10 06:08:07;;;;;;;;;;;7.80;99.90;;;;;;6727935;88;20119;-79
2024/04/10 06:18:08;;;;;;;;;;;7.70;99.90;;;;;;6735302;88;20083;-80
2024/04/10 06:28:08;;;;;;;;;;;7.90;99.90;;;;;;6738743;88;20133;-82
2024/04/10 06:38:09;;;;;;;;;;;8.20;99.90;;;;;;6741841;88;20074;-79
2024/04/10 06:48:09;;;;;;;;;;;8.50;99.90;;;;;;6739476;88;20160;-81
2024/04/10 06:58:10;;;;;;;;;;;8.90;99.90;;;;;;6747446;88;20034;-83
2024/04/10 07:08:10;;;;;;;;;;;9.20;99.90;;;;;;6748678;88;20050;-80
2024/04/10 07:18:11;;;;;;;;;;;9.70;99.90;;;;;;6741279;88;20449;-81
2024/04/10 07:28:11;;;;;;;;;;;9.90;99.90;;;;;;6746411;88;20851;-82
2024/04/10 07:38:12;;;;;;;;;;;10.20;99.90;;;;;;6745511;88;20087;-84
2024/04/10 07:48:12;;;;;;;;;;;10.50;99.90;;;;;;6751092;88;20066;-81
2024/04/10 07:58:13;;;;;;;;;;;11.80;99.90;;;;;;6748017;88;20702;-83
2024/04/10 08:08:13;;;;;;;;;;;12.50;99.90;;;;;;6742658;88;20104;-84
2024/04/10 08:18:14;;;;;;;;;;;11.80;99.90;;;;;;6743910;88;20062;-81
2024/04/10 08:28:17;;;;;;;;;;;12.90;99.90;;;;;;6742464;88;20104;-80
2024/04/10 08:38:18;;;;;;;;;;;12.30;99.90;;;;;;6747304;88;20517;-80
2024/04/10 08:48:19;;;;;;;;;;;12.10;99.90;;;;;;6745026;88;20047;-79
2024/04/10 08:58:19;;;;;;;;;;;12.00;99.90;;;;;;6738187;88;20139;-79
2024/04/10 09:08:20;;;;;;;;;;;12.90;99.90;;;;;;6733363;88;20058;-80
2024/04/10 09:18:21;;;;;;;;;;;13.80;99.90;;;;;;6737122;88;20063;-80
2024/04/10 09:28:22;;;;;;;;;;;14.30;99.90;;;;;;6740443;88;20071;-81
2024/04/10 09:38:23;;;;;;;;;;;13.80;99.90;;;;;;6741862;88;20056;-78
2024/04/10 09:48:25;;;;;;;;;;;13.80;99.90;;;;;;6731766;88;20178;-81
2024/04/10 09:58:27;;;;;;;;;;;14.10;99.90;;;;;;6728860;88;20091;-81
2024/04/10 10:08:27;;;;;;;;;;;13.80;99.90;;;;;;6716767;88;20081;-81
2024/04/10 10:18:28;;;;;;;;;;;13.60;99.90;;;;;;6715375;88;20069;-80
2024/04/10 10:28:29;;;;;;;;;;;15.50;99.90;;;;;;6715787;88;20167;-81
2024/04/10 10:38:30;;;;;;;;;;;14.70;99.90;;;;;;6719135;88;20058;-80
2024/04/10 10:48:31;;;;;;;;;;;14.10;99.90;;;;;;6715552;88;20073;-79
2024/04/10 10:58:32;;;;;;;;;;;15.00;99.90;;;;;;6709464;88;20082;-82
2024/04/10 11:08:33;;;;;;;;;;;15.40;99.90;;;;;;6714135;88;20575;-80
2024/04/10 11:18:33;;;;;;;;;;;15.30;99.90;;;;;;6711431;88;20084;-80
2024/04/10 11:28:34;;;;;;;;;;;18.10;97.90;;;;;;6712036;88;20083;-80
2024/04/10 11:38:37;;;;;;;;;;;18.10;96.50;;;;;;6711231;88;20111;-81
2024/04/10 11:48:38;;;;;;;;;;;17.10;96.80;;;;;;6730597;88;20061;-79
2024/04/10 11:58:40;;;;;;;;;;;18.50;94.20;;;;;;6730726;88;20038;-80
2024/04/10 12:08:40;;;;;;;;;;;19.80;94.20;;;;;;6731036;88;20125;-80
2024/04/10 12:18:41;;;;;;;;;;;19.60;93.40;;;;;;6730463;88;20205;-83
2024/04/10 12:28:41;;;;;;;;;;;21.20;92.60;;;;;;6729329;88;20505;-80
2024/04/10 12:38:44;;;;;;;;;;;20.00;91.70;;;;;;6731454;88;20054;-83
2024/04/10 12:48:45;;;;;;;;;;;19.30;91.90;;;;;;6734818;88;20074;-81
2024/04/10 12:58:46;;;;;;;;;;;19.80;91.10;;;;;;6730050;88;20160;-80
2024/04/10 13:08:46;;;;;;;;;;;20.20;91.20;;;;;;6725633;88;20082;-81
2024/04/10 13:18:48;;;;;;;;;;;20.20;90.60;;;;;;6729278;88;20109;-80
2024/04/10 13:28:49;;;;;;;;;;;19.90;90.20;;;;;;6728315;88;20045;-78
2024/04/10 13:38:51;;;;;;;;;;;20.20;90.10;;;;;;6728577;88;20043;-79
2024/04/10 13:48:52;;;;;;;;;;;19.50;89.70;;;;;;6728933;88;20057;-79
2024/04/10 13:58:52;;;;;;;;;;;18.50;90.80;;;;;;6723662;88;20285;-80
2024/04/10 14:08:53;;;;;;;;;;;18.80;91.20;;;;;;6729141;88;20070;-80
2024/04/10 14:18:53;;;;;;;;;;;20.40;90.10;;;;;;6730000;88;20554;-81
2024/04/10 14:38:57;;;;;;;;;;;22.40;86.90;;;;;;6669042;89;20194;-79
2024/04/10 14:48:57;;;;;;;;;;;19.90;85.10;;;;;;6654833;89;20089;-81
2024/04/10 14:58:58;;;;;;;;;;;20.80;84.60;;;;;;6655844;89;20541;-81
2024/04/10 15:08:58;;;;;;;;;;;20.80;84.70;;;;;;6666522;88;20208;-78
2024/04/10 15:18:59;;;;;;;;;;;19.20;86.60;;;;;;6664667;88;20525;-79
2024/04/10 15:28:59;;;;;;;;;;;18.70;86.50;;;;;;6691707;88;20095;-81
2024/04/10 15:39:00;;;;;;;;;;;19.50;85.00;;;;;;6679191;89;20095;-80
2024/04/10 15:49:01;;;;;;;;;;;19.80;85.40;;;;;;6672536;89;20187;-79
2024/04/10 15:59:01;;;;;;;;;;;18.40;87.10;;;;;;6669194;88;21293;-80
2024/04/10 16:09:02;;;;;;;;;;;17.60;88.50;;;;;;6668497;89;20251;-80
2024/04/10 16:19:03;;;;;;;;;;;18.40;89.00;;;;;;6669439;88;20102;-78
2024/04/10 16:29:04;;;;;;;;;;;18.30;88.80;;;;;;6677851;88;20142;-77
2024/04/10 16:39:06;;;;;;;;;;;17.90;90.00;;;;;;6664166;89;20186;-78
2024/04/10 16:49:08;;;;;;;;;;;17.70;90.20;;;;;;6663222;89;20102;-76
2024/04/10 16:59:09;;;;;;;;;;;17.60;90.80;;;;;;6666397;88;20516;-76
2024/04/10 17:09:09;;;;;;;;;;;17.20;90.80;;;;;;6661926;88;20164;-76
2024/04/10 17:29:29;;;;;;;;;;;16.50;92.20;;;;;;6674021;89;20487;-78
2024/04/10 17:39:37;;;;;;;;;;;16.10;92.20;;;;;;6652271;89;20074;-79
2024/04/10 17:49:38;;;;;;;;;;;15.60;92.80;;;;;;6651931;89;20074;-78
2024/04/10 17:59:38;;;;;;;;;;;15.20;93.20;;;;;;6646585;89;20068;-79
2024/04/10 18:09:39;;;;;;;;;;;14.90;93.80;;;;;;6670139;89;20056;-77
2024/04/10 18:19:39;;;;;;;;;;;14.50;94.60;;;;;;6649720;89;20081;-78
2024/04/10 18:29:39;;;;;;;;;;;14.10;95.50;;;;;;6649925;89;20067;-78
2024/04/10 18:39:40;;;;;;;;;;;14.00;95.50;;;;;;6654208;89;20161;-77
2024/04/10 18:49:42;;;;;;;;;;;13.80;95.90;;;;;;6648761;89;20106;-79
2024/04/10 18:59:42;;;;;;;;;;;13.60;96.10;;;;;;6649027;89;20067;-76
2024/04/10 19:09:43;;;;;;;;;;;13.50;96.40;;;;;;6650925;89;20863;-79
2024/04/10 19:19:43;;;;;;;;;;;13.30;97.20;;;;;;6667015;89;20094;-80
2024/04/10 19:29:45;;;;;;;;;;;12.90;97.90;;;;;;6670172;88;20097;-80
2024/04/10 19:39:46;;;;;;;;;;;12.70;98.40;;;;;;6670666;89;20133;-79
2024/04/10 19:49:47;;;;;;;;;;;12.60;98.80;;;;;;6671362;89;20208;-79
2024/04/10 19:59:48;;;;;;;;;;;12.40;99.40;;;;;;6672186;89;20135;-79
2024/04/10 20:09:49;;;;;;;;;;;12.30;99.90;;;;;;6673740;89;20751;-81
2024/04/10 20:19:49;;;;;;;;;;;12.00;99.90;;;;;;6680008;88;20053;-79
2024/04/10 20:29:52;;;;;;;;;;;11.60;99.90;;;;;;6677512;78;20082;-78
2024/04/10 20:39:53;;;;;;;;;;;11.50;99.90;;;;;;6675969;88;20082;-78
2024/04/10 20:49:54;;;;;;;;;;;11.30;99.90;;;;;;6669213;89;20123;-79
2024/04/10 20:59:54;;;;;;;;;;;10.80;99.90;;;;;;6681689;88;20071;-79
2024/04/10 22:11:53;;;;;;;;;;;11.20;99.90;;;;;;6688424;88;20170;-79
2024/04/10 22:32:13;;;;;;;;;;;11.10;99.90;;;;;;6663168;89;20061;-79
2024/04/10 22:42:13;;;;;;;;;;;10.90;99.90;;;;;;6673365;88;20146;-78
2024/04/10 22:52:14;;;;;;;;;;;10.90;99.90;;;;;;6667547;89;20626;-79
2024/04/10 23:02:16;;;;;;;;;;;11.00;99.90;;;;;;6667503;89;20560;-78
2024/04/10 23:12:16;;;;;;;;;;;11.00;99.90;;;;;;6665723;89;20096;-79
2024/04/10 23:22:17;;;;;;;;;;;10.90;99.90;;;;;;6672299;89;20473;-78
2024/04/10 23:32:18;;;;;;;;;;;10.70;99.90;;;;;;6667574;88;20073;-78
2024/04/10 23:42:18;;;;;;;;;;;10.60;99.90;;;;;;6668058;88;20066;-79
2024/04/10 23:52:19;;;;;;;;;;;10.60;99.90;;;;;;6670147;89;20141;-78
